Time;durP1;ratioP1;P1;durP2;ratioP2;P2;SDS_P1;SDS_P2;PMS_P1;PMS_P2;Temp;Humidity;BMP_temperature;BMP_pressure;BME280_temperature;BME280_humidity;BME280_pressure;Samples;Min_cycle;Max_cycle;Signal;HPM_P1;HPM_P2
2022/08/13 00:01:25;;;;;;;1999.90;999.90;;;;;;;20.04;48.51;95358.00;5013058;28;20037;-67
2022/08/13 00:03:55;;;;;;;1999.90;999.90;;;;;;;19.81;48.44;95316.69;5009797;28;20104;-66
2022/08/13 00:09:13;;;;;;;1999.90;999.90;;;;;;;20.06;48.60;95353.00;5001928;28;20111;-66
2022/08/13 00:14:31;;;;;;;1999.90;999.90;;;;;;;20.31;48.77;95402.06;5029170;28;20171;-66
2022/08/13 00:16:57;;;;;;;1999.90;999.90;;;;;;;20.24;49.00;95402.72;5030819;28;20030;-66
2022/08/13 00:19:26;;;;;;;1999.90;999.90;;;;;;;19.77;48.88;95337.44;5012772;28;20061;-67
2022/08/13 00:21:52;;;;;;;1999.90;999.90;;;;;;;20.12;48.65;95375.88;5031536;28;20108;-67
2022/08/13 00:24:18;;;;;;;1999.90;999.90;;;;;;;20.01;48.92;95388.41;5029033;28;20382;-67
2022/08/13 00:26:43;;;;;;;1999.90;999.90;;;;;;;20.05;48.71;95375.75;5031160;28;20025;-67
2022/08/13 00:29:09;;;;;;;1999.90;999.90;;;;;;;19.40;49.15;95300.13;5030179;28;20432;-66
2022/08/13 00:31:37;;;;;;;1999.90;999.90;;;;;;;19.79;48.94;95345.97;5029811;28;20034;-66
2022/08/13 00:34:03;;;;;;;1999.90;999.90;;;;;;;19.92;48.74;95355.47;5030200;28;20026;-67
2022/08/13 00:36:35;;;;;;;1999.90;999.90;;;;;;;19.55;48.95;95315.44;5012389;28;20022;-66
2022/08/13 00:39:04;;;;;;;1999.90;999.90;;;;;;;20.03;48.61;95371.84;5029711;28;20079;-66
2022/08/13 00:41:38;;;;;;;1999.90;999.90;;;;;;;20.17;49.04;95399.91;5029977;28;20068;-67
2022/08/13 00:44:09;;;;;;;1999.90;999.90;;;;;;;20.00;48.67;95382.22;5029878;28;20029;-66
2022/08/13 00:46:36;;;;;;;1999.90;999.90;;;;;;;20.15;48.63;95395.97;5010229;28;20095;-66
2022/08/13 00:49:03;;;;;;;1999.90;999.90;;;;;;;19.47;48.72;95303.72;5031157;28;20028;-67
2022/08/13 00:51:31;;;;;;;1999.90;999.90;;;;;;;20.03;49.06;95393.47;5029119;28;20452;-67
2022/08/13 00:53:58;;;;;;;1999.90;999.90;;;;;;;19.58;48.47;95309.31;5029538;28;20033;-67
2022/08/13 00:56:25;;;;;;;1999.90;999.90;;;;;;;20.17;48.73;95399.13;5029451;28;20108;-67
2022/08/13 00:58:51;;;;;;;1999.90;999.90;;;;;;;20.16;48.54;95387.50;5030201;28;20032;-68
2022/08/13 01:01:18;;;;;;;1999.90;999.90;;;;;;;19.93;48.29;95341.59;5028213;28;20036;-67
2022/08/13 01:03:43;;;;;;;1999.90;999.90;;;;;;;20.17;48.90;95394.50;5030195;28;20022;-67
2022/08/13 01:06:09;;;;;;;1999.90;999.90;;;;;;;19.84;48.82;95348.38;5029596;28;20033;-67
2022/08/13 01:08:40;;;;;;;1999.90;999.90;;;;;;;19.98;48.81;95372.94;5029678;28;20026;-67
2022/08/13 01:11:09;;;;;;;1999.90;999.90;;;;;;;19.84;49.32;95372.66;5029076;28;20039;-67
2022/08/13 01:13:36;;;;;;;1999.90;999.90;;;;;;;19.27;49.05;95282.50;5011578;28;20025;-65
2022/08/13 01:16:04;;;;;;;1999.90;999.90;;;;;;;19.84;49.46;95375.34;5029239;28;20079;-71
2022/08/13 01:18:31;;;;;;;1999.90;999.90;;;;;;;19.61;49.42;95348.34;5028713;28;20607;-67
2022/08/13 01:21:00;;;;;;;1999.90;999.90;;;;;;;19.90;49.64;95384.72;5030392;28;20113;-67
2022/08/13 01:23:28;;;;;;;1999.90;999.90;;;;;;;19.45;48.99;95310.63;5027941;28;20115;-66
2022/08/13 01:25:55;;;;;;;1999.90;999.90;;;;;;;19.72;49.83;95368.19;5029039;28;20104;-68
2022/08/13 01:28:23;;;;;;;1999.90;999.90;;;;;;;19.44;49.81;95319.81;5030082;28;20026;-67
2022/08/13 01:30:50;;;;;;;1999.90;999.90;;;;;;;19.80;49.73;95374.50;5029083;28;20029;-67
2022/08/13 01:33:17;;;;;;;1999.90;999.90;;;;;;;19.75;49.73;95362.06;5011377;28;20060;-68
2022/08/13 01:35:44;;;;;;;1999.90;999.90;;;;;;;19.78;50.06;95377.56;5007794;28;20091;-69
2022/08/13 01:38:10;;;;;;;1999.90;999.90;;;;;;;19.68;50.17;95372.75;5002094;28;20517;-67
2022/08/13 01:40:36;;;;;;;1999.90;999.90;;;;;;;19.13;50.20;95291.84;5027979;28;20072;-66
2022/08/13 01:43:03;;;;;;;1999.90;999.90;;;;;;;19.28;50.50;95327.22;5028865;28;20076;-67
2022/08/13 01:45:30;;;;;;;1999.90;999.90;;;;;;;18.81;50.56;95256.16;5028193;28;20022;-67
2022/08/13 01:50:41;;;;;;;1999.90;999.90;;;;;;;19.13;50.14;95294.56;5029396;28;20048;-68
2022/08/13 01:53:09;;;;;;;1999.90;999.90;;;;;;;19.63;50.24;95378.44;5027931;28;20041;-67
2022/08/13 01:55:39;;;;;;;1999.90;999.90;;;;;;;19.31;50.53;95337.31;5023774;28;20037;-67
2022/08/13 01:58:26;;;;;;;1999.90;999.90;;;;;;;19.60;50.61;95371.03;5028736;28;20037;-68
2022/08/13 02:00:54;;;;;;;1999.90;999.90;;;;;;;19.19;50.27;95319.31;5027316;28;20546;-67
2022/08/13 02:03:20;;;;;;;1999.90;999.90;;;;;;;19.10;50.61;95321.47;5027715;28;20044;-68
2022/08/13 02:05:47;;;;;;;1999.90;999.90;;;;;;;19.45;50.96;95380.75;5011039;28;20563;-67
2022/08/13 02:08:15;;;;;;;1999.90;999.90;;;;;;;19.37;51.05;95374.41;5011912;28;20064;-67
2022/08/13 02:10:43;;;;;;;1999.90;999.90;;;;;;;18.82;51.05;95300.84;5027445;28;20018;-68
2022/08/13 02:13:11;;;;;;;1999.90;999.90;;;;;;;19.31;51.30;95378.53;5011665;28;20532;-67
2022/08/13 02:15:38;;;;;;;1999.90;999.90;;;;;;;18.72;51.30;95287.16;5024996;28;20026;-67
2022/08/13 02:18:04;;;;;;;1999.90;999.90;;;;;;;18.85;51.48;95326.31;5029508;28;20574;-67
2022/08/13 02:20:35;;;;;;;1999.90;999.90;;;;;;;19.22;51.61;95373.34;5027877;28;20056;-67
2022/08/13 02:23:02;;;;;;;1999.90;999.90;;;;;;;19.14;51.63;95360.84;5029043;28;20112;-68
2022/08/13 02:25:29;;;;;;;1999.90;999.90;;;;;;;19.12;51.52;95365.81;5008720;28;20384;-67
2022/08/13 02:27:55;;;;;;;1999.90;999.90;;;;;;;18.83;51.66;95315.09;5027419;28;20025;-68
2022/08/13 02:30:26;;;;;;;1999.90;999.90;;;;;;;18.76;52.02;95323.03;5027431;28;20036;-66
2022/08/13 02:32:52;;;;;;;1999.90;999.90;;;;;;;18.63;51.92;95296.19;5029011;28;20075;-68
2022/08/13 02:35:18;;;;;;;1999.90;999.90;;;;;;;19.09;51.84;95371.91;5010533;28;20390;-67
2022/08/13 02:37:44;;;;;;;1999.90;999.90;;;;;;;19.00;52.00;95363.25;5029360;28;20526;-68
2022/08/13 02:42:55;;;;;;;1999.90;999.90;;;;;;;18.93;52.04;95365.75;5009296;28;20080;-68
2022/08/13 02:45:23;;;;;;;1999.90;999.90;;;;;;;18.69;52.76;95343.31;5004309;28;20495;-67
2022/08/13 02:47:48;;;;;;;1999.90;999.90;;;;;;;18.81;52.35;95369.34;5029224;28;20029;-68
2022/08/13 02:50:14;;;;;;;1999.90;999.90;;;;;;;18.81;52.18;95374.75;5010312;28;20386;-67
2022/08/13 02:52:40;;;;;;;1999.90;999.90;;;;;;;18.64;52.44;95354.31;5010687;28;20057;-68
2022/08/13 02:55:07;;;;;;;1999.90;999.90;;;;;;;18.41;52.64;95345.28;5028105;28;20033;-68
2022/08/13 02:57:33;;;;;;;1999.90;999.90;;;;;;;18.55;52.43;95347.56;5041843;23;20473;-67
2022/08/13 02:59:58;;;;;;;1999.90;999.90;;;;;;;18.53;52.52;95358.69;5027209;28;20073;-67
2022/08/13 03:02:24;;;;;;;1999.90;999.90;;;;;;;18.29;52.50;95308.47;5025739;28;20120;-69
2022/08/13 03:04:50;;;;;;;1999.90;999.90;;;;;;;18.02;52.05;95266.31;5032453;28;20116;-68
2022/08/13 03:07:17;;;;;;;1999.90;999.90;;;;;;;18.55;52.30;95356.41;5033040;28;20060;-68
2022/08/13 03:09:42;;;;;;;1999.90;999.90;;;;;;;18.36;52.19;95340.94;5031501;28;20083;-68
2022/08/13 03:12:09;;;;;;;1999.90;999.90;;;;;;;17.61;52.30;95242.22;5031072;28;20025;-67
2022/08/13 03:14:36;;;;;;;1999.90;999.90;;;;;;;18.50;52.22;95369.38;5031610;28;20030;-68
2022/08/13 03:17:02;;;;;;;1999.90;999.90;;;;;;;17.77;52.24;95284.53;5031897;28;20032;-67
2022/08/13 03:19:27;;;;;;;1999.90;999.90;;;;;;;17.55;52.36;95251.63;5030342;28;20026;-67
2022/08/13 03:21:54;;;;;;;1999.90;999.90;;;;;;;17.94;52.11;95316.47;5032832;28;20026;-68
2022/08/13 03:24:21;;;;;;;1999.90;999.90;;;;;;;18.28;52.68;95370.78;5031446;28;20021;-68
2022/08/13 03:26:47;;;;;;;1999.90;999.90;;;;;;;18.08;52.55;95332.97;5031452;28;20024;-67
2022/08/13 03:29:12;;;;;;;1999.90;999.90;;;;;;;18.08;52.77;95335.66;5032562;28;20379;-67
2022/08/13 03:31:39;;;;;;;1999.90;999.90;;;;;;;18.27;52.67;95371.88;5031327;28;20040;-68
2022/08/13 03:34:06;;;;;;;1999.90;999.90;;;;;;;18.03;52.79;95340.53;5032261;28;20053;-68
2022/08/13 03:36:34;;;;;;;1999.90;999.90;;;;;;;18.09;52.71;95350.69;5030618;28;20049;-67
2022/08/13 03:39:00;;;;;;;1999.90;999.90;;;;;;;18.06;53.26;95374.81;5032246;28;20036;-68
2022/08/13 03:41:26;;;;;;;1999.90;999.90;;;;;;;18.05;53.07;95379.41;5030366;28;20033;-68
2022/08/13 03:43:53;;;;;;;1999.90;999.90;;;;;;;18.02;53.13;95382.81;5031864;28;20029;-68
2022/08/13 03:46:25;;;;;;;1999.90;999.90;;;;;;;16.98;53.59;95235.91;5029192;28;20501;-68
2022/08/13 03:48:51;;;;;;;1999.90;999.90;;;;;;;17.72;53.43;95346.63;5032214;28;20032;-68
2022/08/13 03:51:22;;;;;;;1999.90;999.90;;;;;;;17.07;53.55;95261.50;5030903;28;20040;-68
2022/08/13 03:53:55;;;;;;;1999.90;999.90;;;;;;;17.59;53.68;95335.13;5031093;28;20037;-68
2022/08/13 03:56:23;;;;;;;1999.90;999.90;;;;;;;17.87;53.71;95380.88;5030778;28;20079;-68
2022/08/13 03:58:49;;;;;;;1999.90;999.90;;;;;;;17.61;53.88;95347.13;5030525;28;20021;-68
2022/08/13 04:01:15;;;;;;;1999.90;999.90;;;;;;;17.68;53.84;95368.03;5036105;28;20057;-68
2022/08/13 04:03:41;;;;;;;1999.90;999.90;;;;;;;17.82;53.36;95389.19;5030703;28;20069;-69
2022/08/13 04:06:15;;;;;;;1999.90;999.90;;;;;;;17.82;53.62;95387.28;5030660;28;20072;-68
2022/08/13 04:08:41;;;;;;;1999.90;999.90;;;;;;;17.71;53.55;95366.56;5031144;28;20033;-69
2022/08/13 04:11:09;;;;;;;1999.90;999.90;;;;;;;17.72;53.91;95368.13;5029643;28;20035;-69
2022/08/13 04:13:38;;;;;;;1999.90;999.90;;;;;;;17.83;53.62;95385.38;5028451;28;20033;-68
2022/08/13 04:16:08;;;;;;;1999.90;999.90;;;;;;;17.87;53.49;95383.56;5018476;28;20038;-68
2022/08/13 04:18:37;;;;;;;1999.90;999.90;;;;;;;17.56;53.52;95328.53;5031075;28;20814;-68
2022/08/13 04:21:06;;;;;;;1999.90;999.90;;;;;;;17.77;53.55;95349.09;5031740;28;20036;-67
2022/08/13 04:23:34;;;;;;;1999.90;999.90;;;;;;;17.44;53.26;95290.94;5030186;28;20029;-68
2022/08/13 04:25:59;;;;;;;1999.90;999.90;;;;;;;17.15;53.65;95254.44;5027698;28;20091;-68
2022/08/13 04:28:26;;;;;;;1999.90;999.90;;;;;;;17.96;53.46;95370.72;5031472;28;20385;-68
2022/08/13 04:30:52;;;;;;;1999.90;999.90;;;;;;;17.31;53.20;95270.63;5029088;28;20022;-68
2022/08/13 04:33:18;;;;;;;1999.90;999.90;;;;;;;17.83;52.92;95321.56;5024604;28;20183;-68
2022/08/13 04:35:45;;;;;;;1999.90;999.90;;;;;;;18.09;52.55;95355.28;5029345;28;20594;-68
2022/08/13 04:38:15;;;;;;;1999.90;999.90;;;;;;;17.90;52.16;95318.28;5030457;28;20026;-68
2022/08/13 04:40:43;;;;;;;1999.90;999.90;;;;;;;18.32;52.18;95364.31;5030590;28;20021;-68
2022/08/13 04:43:10;;;;;;;1999.90;999.90;;;;;;;18.08;51.86;95306.06;5028472;28;20043;-68
2022/08/13 04:45:36;;;;;;;1999.90;999.90;;;;;;;18.36;51.25;95329.41;5028986;28;20103;-68
2022/08/13 04:48:07;;;;;;;1999.90;999.90;;;;;;;18.98;51.07;95392.44;5031173;28;20458;-68
2022/08/13 04:50:34;;;;;;;1999.90;999.90;;;;;;;19.17;50.15;95349.34;5030151;28;20030;-68
2022/08/13 04:53:04;;;;;;;1999.90;999.90;;;;;;;19.57;49.72;95369.03;5029779;28;20036;-68
2022/08/13 04:55:31;;;;;;;1999.90;999.90;;;;;;;19.81;48.42;95360.66;5029862;28;20033;-68
2022/08/13 04:57:56;;;;;;;1999.90;999.90;;;;;;;19.92;47.94;95326.53;5029576;28;20044;-68
2022/08/13 05:00:24;;;;;;;1999.90;999.90;;;;;;;20.12;47.28;95321.09;5028942;28;20378;-67
2022/08/13 05:02:52;;;;;;;1999.90;999.90;;;;;;;19.92;46.64;95245.56;5029250;28;20037;-68
2022/08/13 05:05:21;;;;;;;1999.90;999.90;;;;;;;20.83;45.83;95335.75;5027485;28;20375;-69
2022/08/13 05:07:52;;;;;;;1999.90;999.90;;;;;;;21.04;44.88;95324.44;5028431;28;20057;-69
2022/08/13 05:10:19;;;;;;;1999.90;999.90;;;;;;;21.33;44.70;95324.81;5029364;28;20037;-68
2022/08/13 05:12:45;;;;;;;1999.90;999.90;;;;;;;21.57;44.09;95335.16;5029082;28;20393;-66
2022/08/13 05:15:13;;;;;;;1999.90;999.90;;;;;;;21.29;43.87;95293.09;5027765;28;20029;-69
2022/08/13 05:17:39;;;;;;;1999.90;999.90;;;;;;;21.00;43.52;95256.00;5028594;28;20163;-66
2022/08/13 05:20:05;;;;;;;1999.90;999.90;;;;;;;21.28;43.90;95282.59;5025311;28;20025;-68
2022/08/13 05:22:30;;;;;;;1999.90;999.90;;;;;;;21.29;43.58;95260.63;5026323;28;20466;-68
2022/08/13 05:24:56;;;;;;;1999.90;999.90;;;;;;;21.64;43.49;95297.34;5030069;28;20035;-69
2022/08/13 05:27:22;;;;;;;1999.90;999.90;;;;;;;20.78;43.19;95171.16;5027997;28;20446;-68
2022/08/13 05:29:47;;;;;;;1999.90;999.90;;;;;;;21.61;43.09;95303.50;5028373;28;20068;-69
2022/08/13 05:32:13;;;;;;;1999.90;999.90;;;;;;;21.38;43.46;95273.09;5027561;28;20048;-68
2022/08/13 05:34:38;;;;;;;1999.90;999.90;;;;;;;21.72;42.96;95336.88;5029895;28;20025;-68
2022/08/13 05:37:06;;;;;;;1999.90;999.90;;;;;;;21.68;43.51;95341.47;5028470;28;20030;-67
2022/08/13 05:39:32;;;;;;;1999.90;999.90;;;;;;;21.15;43.66;95252.31;5029813;28;20036;-68
2022/08/13 05:41:58;;;;;;;1999.90;999.90;;;;;;;21.46;43.70;95305.28;5028522;28;20053;-70
2022/08/13 05:44:24;;;;;;;1999.90;999.90;;;;;;;21.09;43.78;95258.41;5029437;28;20029;-70
2022/08/13 05:46:49;;;;;;;1999.90;999.90;;;;;;;20.39;43.94;95151.72;5028344;28;20029;-65
2022/08/13 05:49:15;;;;;;;1999.90;999.90;;;;;;;20.96;43.95;95250.53;5029787;28;20022;-68
2022/08/13 05:51:43;;;;;;;1999.90;999.90;;;;;;;21.56;43.21;95341.72;5027849;28;20116;-67
2022/08/13 05:54:11;;;;;;;1999.90;999.90;;;;;;;20.22;43.21;95180.81;5028791;28;20028;-71
2022/08/13 05:56:38;;;;;;;1999.90;999.90;;;;;;;21.35;43.39;95311.72;5026223;28;20087;-70
2022/08/13 06:03:22;;;;;;;1999.90;999.90;;;;;;;21.72;43.17;95323.34;5026812;28;20040;-69
2022/08/13 06:04:40;;;;;;;1999.90;999.90;;;;;;;22.07;42.31;95333.00;5020622;28;20084;-68
2022/08/13 06:07:09;;;;;;;1999.90;999.90;;;;;;;21.71;41.94;95305.56;5021031;28;20025;-68
2022/08/13 06:09:35;;;;;;;1999.90;999.90;;;;;;;20.51;42.46;95089.34;5017142;28;20394;-67
2022/08/13 06:12:00;;;;;;;1999.90;999.90;;;;;;;20.68;42.59;95109.66;5016375;28;20101;-67
2022/08/13 06:14:26;;;;;;;1999.90;999.90;;;;;;;21.79;42.22;95263.06;5016758;28;20109;-67
2022/08/13 06:16:52;;;;;;;1999.90;999.90;;;;;;;22.10;41.78;95301.66;5010543;28;20061;-67
2022/08/13 06:19:24;;;;;;;1999.90;999.90;;;;;;;22.29;41.60;95315.78;5027443;28;20076;-68
2022/08/13 06:21:50;;;;;;;;;;;;;;;22.52;41.10;95342.69;5016111;28;20065;-68
2022/08/13 06:24:17;;;;;;;1999.90;999.90;;;;;;;22.36;40.77;95322.41;5009251;28;19936;-69
2022/08/13 06:26:42;;;;;;;1999.90;999.90;;;;;;;22.44;40.67;95338.38;5028623;28;20033;-68
2022/08/13 06:29:07;;;;;;;1999.90;999.90;;;;;;;22.28;40.78;95295.25;5027787;28;20056;-68
2022/08/13 06:31:38;;;;;;;1999.90;999.90;;;;;;;22.53;40.63;95335.34;5029513;28;20394;-69
2022/08/13 06:34:08;;;;;;;1999.90;999.90;;;;;;;22.27;40.73;95291.00;5027666;28;20039;-68
2022/08/13 06:36:36;;;;;;;1999.90;999.90;;;;;;;22.60;39.98;95342.75;5028541;28;20107;-68
2022/08/13 06:39:04;;;;;;;1999.90;999.90;;;;;;;22.49;40.22;95339.94;5030750;28;20108;-70
2022/08/13 06:41:31;;;;;;;1999.90;999.90;;;;;;;22.26;40.07;95324.66;5031570;28;20453;-68
2022/08/13 06:43:57;;;;;;;1999.90;999.90;;;;;;;22.31;40.37;95339.78;5031499;28;20033;-68
2022/08/13 06:46:25;;;;;;;1999.90;999.90;;;;;;;22.41;40.49;95330.97;5032257;28;20086;-68
2022/08/13 06:48:51;;;;;;;1999.90;999.90;;;;;;;22.41;40.44;95330.19;5031743;28;20029;-68
2022/08/13 06:51:17;;;;;;;1999.90;999.90;;;;;;;22.65;40.42;95343.16;5030689;28;20049;-69
2022/08/13 06:53:44;;;;;;;1999.90;999.90;;;;;;;22.69;40.02;95333.13;5030960;28;20028;-68
2022/08/13 06:56:12;;;;;;;1999.90;999.90;;;;;;;22.80;40.12;95347.53;5029583;28;20120;-68
2022/08/13 06:58:39;;;;;;;1999.90;999.90;;;;;;;22.80;39.53;95323.13;5030002;28;20116;-69
2022/08/13 07:01:04;;;;;;;1999.90;999.90;;;;;;;23.06;39.43;95338.44;5030775;28;20056;-68
2022/08/13 07:03:32;;;;;;;1999.90;999.90;;;;;;;23.08;38.68;95319.03;5028556;28;20068;-67
2022/08/13 07:05:58;;;;;;;1999.90;999.90;;;;;;;23.39;38.27;95344.00;5030950;28;20025;-68
2022/08/13 07:08:26;;;;;;;1999.90;999.90;;;;;;;23.33;38.11;95347.09;5029682;28;20112;-66
2022/08/13 07:11:21;;;;;;;1999.90;999.90;;;;;;;23.41;37.73;95330.84;5030727;28;20036;-71
2022/08/13 07:13:49;;;;;;;1999.90;999.90;;;;;;;23.55;37.97;95347.97;5029567;28;20071;-68
2022/08/13 07:16:19;;;;;;;1999.90;999.90;;;;;;;23.40;38.17;95337.44;5030765;28;20178;-68
2022/08/13 07:18:46;;;;;;;1999.90;999.90;;;;;;;23.70;38.02;95351.56;5029788;28;20028;-71
2022/08/13 07:21:15;;;;;;;1999.90;999.90;;;;;;;23.85;37.57;95353.16;5029933;28;20502;-68
2022/08/13 07:23:42;;;;;;;1999.90;999.90;;;;;;;23.80;37.05;95344.56;5031325;28;20040;-69
2022/08/13 07:26:09;;;;;;;1999.90;999.90;;;;;;;23.63;37.19;95326.25;5045573;28;20025;-71
2022/08/13 07:28:35;;;;;;;1999.90;999.90;;;;;;;23.42;37.09;95286.25;5032598;28;20107;-66
2022/08/13 07:31:05;;;;;;;1999.90;999.90;;;;;;;23.72;36.79;95291.41;5028041;28;20060;-68
2022/08/13 07:33:33;;;;;;;1999.90;999.90;;;;;;;24.23;36.42;95347.41;5030701;28;20029;-68
2022/08/13 07:36:03;;;;;;;1999.90;999.90;;;;;;;23.58;37.12;95286.69;5028622;28;20026;-68
2022/08/13 07:38:28;;;;;;;1999.90;999.90;;;;;;;24.00;36.09;95306.97;5046863;28;20057;-68
2022/08/13 07:40:55;;;;;;;1999.90;999.90;;;;;;;23.66;37.23;95314.69;5030356;28;20115;-68
2022/08/13 07:43:22;;;;;;;1999.90;999.90;;;;;;;23.60;36.65;95322.41;5028795;28;20080;-66
2022/08/13 07:46:09;;;;;;;1999.90;999.90;;;;;;;23.89;36.76;95341.50;5031054;28;20147;-64
2022/08/13 07:48:40;;;;;;;1999.90;999.90;;;;;;;23.92;36.05;95348.91;5029878;28;20072;-67
2022/08/13 07:51:12;;;;;;;1999.90;999.90;;;;;;;23.81;36.33;95346.16;5029141;28;20096;-67
2022/08/13 07:53:39;;;;;;;;;;;;;;;24.01;36.71;95350.09;5030928;28;20065;-72
2022/08/13 07:56:06;;;;;;;1999.90;999.90;;;;;;;23.65;36.71;95270.47;5030418;28;19956;-70
2022/08/13 07:58:33;;;;;;;1999.90;999.90;;;;;;;24.17;36.04;95344.28;5029104;28;20475;-68
2022/08/13 08:00:59;;;;;;;1999.90;999.90;;;;;;;24.01;36.14;95338.44;5029707;28;20025;-69
2022/08/13 08:03:34;;;;;;;1999.90;999.90;;;;;;;24.12;35.68;95333.78;5026958;28;20045;-69
2022/08/13 08:06:03;;;;;;;1999.90;999.90;;;;;;;23.34;37.23;95323.47;5050235;28;20049;-68
2022/08/13 08:08:30;;;;;;;1999.90;999.90;;;;;;;24.18;36.21;95351.28;5024345;28;20057;-69
2022/08/13 08:10:55;;;;;;;1999.90;999.90;;;;;;;24.08;36.01;95324.84;5024459;28;20030;-71
2022/08/13 08:13:21;;;;;;;1999.90;999.90;;;;;;;24.45;35.65;95348.97;5018411;28;20540;-68
2022/08/13 08:15:47;;;;;;;1999.90;999.90;;;;;;;24.47;35.67;95348.63;5022170;28;20017;-66
2022/08/13 08:18:13;;;;;;;1999.90;999.90;;;;;;;24.62;35.66;95331.91;5020175;28;20033;-67
2022/08/13 08:20:41;;;;;;;1999.90;999.90;;;;;;;24.73;35.13;95312.06;5013219;28;20109;-68
2022/08/13 08:23:09;;;;;;;1999.90;999.90;;;;;;;24.30;35.68;95314.78;5027565;28;20025;-67
2022/08/13 08:25:35;;;;;;;1999.90;999.90;;;;;;;24.53;34.97;95326.06;5024025;28;20025;-65
2022/08/13 08:28:00;;;;;;;1999.90;999.90;;;;;;;24.40;35.20;95357.53;5027193;28;20033;-65
2022/08/13 08:30:26;;;;;;;1999.90;999.90;;;;;;;24.17;35.27;95321.75;5028210;28;20037;-65
2022/08/13 08:32:53;;;;;;;1999.90;999.90;;;;;;;24.25;34.96;95332.25;5028822;28;20041;-65
2022/08/13 08:35:20;;;;;;;1999.90;999.90;;;;;;;24.52;34.53;95318.31;5031840;28;20624;-65
2022/08/13 08:43:32;;;;;;;1999.90;999.90;;;;;;;25.40;34.20;95347.31;5029052;28;20048;-67
2022/08/13 08:45:59;;;;;;;1999.90;999.90;;;;;;;25.24;34.07;95332.59;5028507;28;20355;-66
2022/08/13 08:48:27;;;;;;;1999.90;999.90;;;;;;;25.31;34.04;95322.44;5029093;28;20526;-68
2022/08/13 08:50:53;;;;;;;1999.90;999.90;;;;;;;24.98;34.44;95314.72;5029074;28;20029;-67
2022/08/13 08:53:19;;;;;;;1999.90;999.90;;;;;;;24.73;34.07;95301.19;5029681;28;20548;-66
2022/08/13 08:55:44;;;;;;;1999.90;999.90;;;;;;;25.18;33.87;95340.38;5028562;28;20037;-68
2022/08/13 08:58:11;;;;;;;1999.90;999.90;;;;;;;25.46;34.64;95339.53;5013959;28;20029;-80
2022/08/13 09:00:38;;;;;;;1999.90;999.90;;;;;;;25.67;33.85;95344.88;5044425;28;20026;-81
2022/08/13 09:03:05;;;;;;;1999.90;999.90;;;;;;;24.65;36.51;95349.38;5030499;28;20482;-80
2022/08/13 09:05:35;;;;;;;1999.90;999.90;;;;;;;25.09;35.48;95338.09;5031291;28;20021;-81
2022/08/13 09:08:06;;;;;;;1999.90;999.90;;;;;;;25.12;34.30;95304.63;5031969;28;20021;-79
2022/08/13 09:10:35;;;;;;;1999.90;999.90;;;;;;;25.73;34.13;95330.84;5028867;28;20029;-78
2022/08/13 09:13:02;;;;;;;1999.90;999.90;;;;;;;25.75;33.21;95334.75;5030368;28;20034;-75
2022/08/13 09:15:28;;;;;;;1999.90;999.90;;;;;;;25.44;34.03;95336.44;5025699;28;20026;-76
2022/08/13 09:17:54;;;;;;;1999.90;999.90;;;;;;;25.84;33.42;95326.91;5020069;28;20029;-76
2022/08/13 09:20:26;;;;;;;1999.90;999.90;;;;;;;25.67;34.20;95338.66;5041683;28;20032;-76
2022/08/13 09:23:04;;;;;;;1999.90;999.90;;;;;;;25.84;34.14;95348.72;5035266;28;20501;-76
2022/08/13 09:25:30;;;;;;;1999.90;999.90;;;;;;;25.88;33.93;95326.91;5038776;28;20034;-79
2022/08/13 09:27:57;;;;;;;1999.90;999.90;;;;;;;25.88;33.09;95327.66;5030783;28;20033;-80
2022/08/13 09:30:24;;;;;;;1999.90;999.90;;;;;;;26.15;33.11;95300.63;5029336;28;20034;-79
2022/08/13 09:32:53;;;;;;;1999.90;999.90;;;;;;;25.90;33.29;95289.91;5031330;28;20021;-78
2022/08/13 09:35:18;;;;;;;1999.90;999.90;;;;;;;26.28;33.43;95362.88;5029662;28;20167;-77
2022/08/13 09:37:44;;;;;;;1999.90;999.90;;;;;;;26.29;33.06;95346.09;5014921;28;20049;-77
2022/08/13 09:40:14;;;;;;;1999.90;999.90;;;;;;;25.07;34.32;95263.41;5021672;28;20075;-77
2022/08/13 09:42:56;;;;;;;1999.90;999.90;;;;;;;25.24;35.24;95348.94;5026974;28;20036;-79
2022/08/13 09:45:24;;;;;;;1999.90;999.90;;;;;;;25.45;35.19;95346.16;5028084;28;20734;-78
2022/08/13 09:47:49;;;;;;;1999.90;999.90;;;;;;;25.57;34.00;95298.63;5029123;28;20537;-68
2022/08/13 09:50:14;;;;;;;1999.90;999.90;;;;;;;25.76;34.29;95300.13;5029482;28;20036;-69
2022/08/13 09:52:40;;;;;;;1999.90;999.90;;;;;;;25.56;34.44;95332.47;5027930;28;20095;-69
2022/08/13 09:55:06;;;;;;;1999.90;999.90;;;;;;;24.40;34.72;95098.47;5029701;28;20075;-68
2022/08/13 09:57:47;;;;;;;1999.90;999.90;;;;;;;24.81;34.84;95186.50;5022382;28;20033;-67
2022/08/13 10:00:16;;;;;;;1999.90;999.90;;;;;;;24.77;34.52;95123.22;5027760;28;20064;-67
2022/08/13 10:02:44;;;;;;;1999.90;999.90;;;;;;;25.50;33.78;95195.94;5029389;28;20034;-67
2022/08/13 10:05:10;;;;;;;1999.90;999.90;;;;;;;25.70;33.22;95160.03;5027856;28;20029;-68
2022/08/13 10:07:39;;;;;;;1999.90;999.90;;;;;;;24.61;34.32;95112.75;5027437;28;20029;-72
2022/08/13 10:10:05;;;;;;;1999.90;999.90;;;;;;;26.44;34.27;95347.59;5028968;28;20028;-67
2022/08/13 10:12:30;;;;;;;1999.90;999.90;;;;;;;25.63;34.99;95297.03;5027524;28;20040;-69
2022/08/13 10:14:56;;;;;;;1999.90;999.90;;;;;;;26.27;34.81;95342.25;5027703;28;20446;-67
2022/08/13 10:17:21;;;;;;;1999.90;999.90;;;;;;;25.56;35.33;95310.69;5027915;28;20151;-68
2022/08/13 10:19:47;;;;;;;1999.90;999.90;;;;;;;24.95;35.33;95144.09;5028842;28;20034;-68
2022/08/13 10:22:13;;;;;;;1999.90;999.90;;;;;;;25.72;34.19;95165.81;5029183;28;20080;-67
2022/08/13 10:24:38;;;;;;;1999.90;999.90;;;;;;;26.49;32.71;95138.31;5028446;28;20725;-68
2022/08/13 10:27:16;;;;;;;1999.90;999.90;;;;;;;27.30;33.38;95299.63;5028044;28;20485;-69
2022/08/13 10:29:41;;;;;;;1999.90;999.90;;;;;;;26.97;34.00;95290.97;5024233;28;20485;-69
2022/08/13 10:32:07;;;;;;;1999.90;999.90;;;;;;;26.92;34.04;95278.56;5028041;28;20036;-69
2022/08/13 10:34:32;;;;;;;1999.90;999.90;;;;;;;27.31;33.04;95277.38;5029429;28;20029;-68
2022/08/13 10:36:59;;;;;;;1999.90;999.90;;;;;;;27.30;32.74;95291.44;5029733;28;20017;-68
2022/08/13 10:39:24;;;;;;;1999.90;999.90;;;;;;;27.06;33.29;95304.91;5027176;28;20625;-68
2022/08/13 10:41:49;;;;;;;1999.90;999.90;;;;;;;27.07;32.85;95281.13;5028076;28;20028;-68
2022/08/13 10:44:14;;;;;;;1999.90;999.90;;;;;;;28.10;31.71;95309.13;5029136;28;20030;-68
2022/08/13 10:46:45;;;;;;;1999.90;999.90;;;;;;;28.52;30.19;95279.59;5028559;28;20517;-68
2022/08/13 10:49:13;;;;;;;1999.90;999.90;;;;;;;29.37;29.65;95280.78;5029670;28;20028;-69
2022/08/13 10:51:38;;;;;;;1999.90;999.90;;;;;;;29.28;29.54;95250.44;5025958;28;20029;-70
2022/08/13 10:54:04;;;;;;;1999.90;999.90;;;;;;;28.89;29.87;95308.66;5026338;28;20384;-68
2022/08/13 10:56:31;;;;;;;1999.90;999.90;;;;;;;29.23;28.55;95251.72;5028010;28;20026;-69
2022/08/13 10:58:59;;;;;;;1999.90;999.90;;;;;;;29.82;28.66;95306.91;5028670;28;20091;-68
2022/08/13 11:01:26;;;;;;;1999.90;999.90;;;;;;;29.32;28.79;95314.13;5027175;28;20036;-68
2022/08/13 11:04:02;;;;;;;1999.90;999.90;;;;;;;29.45;28.70;95300.59;5026368;28;20083;-68
2022/08/13 11:06:28;;;;;;;1999.90;999.90;;;;;;;29.90;26.50;95311.81;5029464;28;20177;-67
2022/08/13 11:08:56;;;;;;;1999.90;999.90;;;;;;;29.51;26.63;95261.28;5028042;28;20421;-67
2022/08/13 11:11:22;;;;;;;1999.90;999.90;;;;;;;29.46;27.44;95280.97;5009379;28;20037;-66
2022/08/13 11:13:48;;;;;;;1999.90;999.90;;;;;;;29.83;26.46;95295.50;5008863;28;20029;-66
2022/08/13 11:19:01;;;;;;;1999.90;999.90;;;;;;;29.65;27.13;95300.59;5028319;28;20068;-67